<?xml version="1.0" encoding="utf-8"?>
<gpx xmlns:xsi="http://www.w3.org/2001/XMLSchema-instance" xmlns:xsd="http://www.w3.org/2001/XMLSchema" version="1.1" creator="Shapelink.com" xmlns="http://www.topografix.com/GPX/1/1" xmlns:gpxtpx="http://www.garmin.com/xmlschemas/TrackPointExtension/v1">
  <metadata>
    <name>Övrigt 2.14 km, 2020-07-28</name>
    <desc></desc>
    <author><name>Marian Moron</name></author> 
    <time>2020-07-28T11:16:52Z</time>
  </metadata>
  <trk>
    <name>Övrigt 2.14 km, 2020-07-28</name>
    <trkseg>
      <trkpt lat="51.236367443195" lon="4.480541627516">
        <ele>3</ele>
        <time>2020-07-28T11:16:52Z</time>
      </trkpt>
      <trkpt lat="51.236349673567" lon="4.479821454668">
        <ele>2.8</ele>
        <time>2020-07-28T11:17:32Z</time>
      </trkpt>
      <trkpt lat="51.236375908914" lon="4.479100527449">
        <ele>2.8</ele>
        <time>2020-07-28T11:18:13Z</time>
      </trkpt>
      <trkpt lat="51.236330814292" lon="4.478406589948">
        <ele>3.2</ele>
        <time>2020-07-28T11:18:56Z</time>
      </trkpt>
      <trkpt lat="51.236251270061" lon="4.477685998005">
        <ele>3.8</ele>
        <time>2020-07-28T11:19:41Z</time>
      </trkpt>
      <trkpt lat="51.236204666697" lon="4.477572590898">
        <ele>4</ele>
        <time>2020-07-28T11:19:46Z</time>
      </trkpt>
      <trkpt lat="51.236056139429" lon="4.47710722781">
        <ele>1.2</ele>
        <time>2020-07-28T11:20:13Z</time>
      </trkpt>
      <trkpt lat="51.235969554402" lon="4.476550502012">
        <ele>0</ele>
        <time>2020-07-28T11:20:39Z</time>
      </trkpt>
      <trkpt lat="51.235910294369" lon="4.476318323382">
        <ele>0</ele>
        <time>2020-07-28T11:20:53Z</time>
      </trkpt>
      <trkpt lat="51.235757324694" lon="4.475628828288">
        <ele>5</ele>
        <time>2020-07-28T11:21:34Z</time>
      </trkpt>
      <trkpt lat="51.235697813204" lon="4.475373934709">
        <ele>4.6</ele>
        <time>2020-07-28T11:21:48Z</time>
      </trkpt>
      <trkpt lat="51.235657663903" lon="4.475127674487">
        <ele>9.4</ele>
        <time>2020-07-28T11:22:04Z</time>
      </trkpt>
      <trkpt lat="51.235360944643" lon="4.474646972522">
        <ele>9.8</ele>
        <time>2020-07-28T11:22:46Z</time>
      </trkpt>
      <trkpt lat="51.235347449784" lon="4.474566841558">
        <ele>7.8</ele>
        <time>2020-07-28T11:22:51Z</time>
      </trkpt>
      <trkpt lat="51.235285926638" lon="4.474242126752">
        <ele>8.6</ele>
        <time>2020-07-28T11:23:13Z</time>
      </trkpt>
      <trkpt lat="51.235228929718" lon="4.474111201474">
        <ele>9.4</ele>
        <time>2020-07-28T11:23:19Z</time>
      </trkpt>
      <trkpt lat="51.235039079683" lon="4.47397407359">
        <ele>14.4</ele>
        <time>2020-07-28T11:23:39Z</time>
      </trkpt>
      <trkpt lat="51.23487756047" lon="4.473766286289">
        <ele>10</ele>
        <time>2020-07-28T11:23:57Z</time>
      </trkpt>
      <trkpt lat="51.234608836756" lon="4.473353896809">
        <ele>3.6</ele>
        <time>2020-07-28T11:24:30Z</time>
      </trkpt>
      <trkpt lat="51.234448993923" lon="4.472922228959">
        <ele>9</ele>
        <time>2020-07-28T11:24:59Z</time>
      </trkpt>
      <trkpt lat="51.2342128758" lon="4.472298112685">
        <ele>17.4</ele>
        <time>2020-07-28T11:25:33Z</time>
      </trkpt>
      <trkpt lat="51.234124362936" lon="4.472031819722">
        <ele>26.2</ele>
        <time>2020-07-28T11:25:46Z</time>
      </trkpt>
      <trkpt lat="51.233888244813" lon="4.471572323964">
        <ele>21</ele>
        <time>2020-07-28T11:26:16Z</time>
      </trkpt>
      <trkpt lat="51.233581299635" lon="4.471047281748">
        <ele>20.8</ele>
        <time>2020-07-28T11:26:51Z</time>
      </trkpt>
      <trkpt lat="51.233312827378" lon="4.470443868767">
        <ele>13.8</ele>
        <time>2020-07-28T11:27:23Z</time>
      </trkpt>
      <trkpt lat="51.233009821693" lon="4.469864763296">
        <ele>7.8</ele>
        <time>2020-07-28T11:27:54Z</time>
      </trkpt>
      <trkpt lat="51.232847799566" lon="4.469357490708">
        <ele>14.6</ele>
        <time>2020-07-28T11:28:26Z</time>
      </trkpt>
      <trkpt lat="51.232814271966" lon="4.469320023615">
        <ele>17.6</ele>
        <time>2020-07-28T11:28:30Z</time>
      </trkpt>
      <trkpt lat="51.232738415771" lon="4.469141992059">
        <ele>23</ele>
        <time>2020-07-28T11:28:41Z</time>
      </trkpt>
      <trkpt lat="51.23271754484" lon="4.469092119754">
        <ele>25.4</ele>
        <time>2020-07-28T11:28:44Z</time>
      </trkpt>
      <trkpt lat="51.232694662253" lon="4.468687190165">
        <ele>35.6</ele>
        <time>2020-07-28T11:29:00Z</time>
      </trkpt>
      <trkpt lat="51.232415125888" lon="4.468423327953">
        <ele>17.4</ele>
        <time>2020-07-28T11:29:26Z</time>
      </trkpt>
      <trkpt lat="51.23218194143" lon="4.4677957751">
        <ele>16.6</ele>
        <time>2020-07-28T11:30:02Z</time>
      </trkpt>
      <trkpt lat="51.23178631575" lon="4.467486650628">
        <ele>14.6</ele>
        <time>2020-07-28T11:30:34Z</time>
      </trkpt>
      <trkpt lat="51.23169998218" lon="4.4672677154">
        <ele>11</ele>
        <time>2020-07-28T11:30:47Z</time>
      </trkpt>
      <trkpt lat="51.231672238091" lon="4.467251454514">
        <ele>11.8</ele>
        <time>2020-07-28T11:30:50Z</time>
      </trkpt>
      <trkpt lat="51.231467887369" lon="4.467259501138">
        <ele>14</ele>
        <time>2020-07-28T11:31:07Z</time>
      </trkpt>
      <trkpt lat="51.231212071781" lon="4.467235696542">
        <ele>11.4</ele>
        <time>2020-07-28T11:31:26Z</time>
      </trkpt>
      <trkpt lat="51.231273259651" lon="4.466790450014">
        <ele>10.6</ele>
        <time>2020-07-28T11:31:47Z</time>
      </trkpt>
      <trkpt lat="51.231306535794" lon="4.466681485314">
        <ele>11.6</ele>
        <time>2020-07-28T11:31:53Z</time>
      </trkpt>
      <trkpt lat="51.231327071449" lon="4.466631696828">
        <ele>12.8</ele>
        <time>2020-07-28T11:31:56Z</time>
      </trkpt>
      <trkpt lat="51.231471240129" lon="4.466351406092">
        <ele>12</ele>
        <time>2020-07-28T11:32:12Z</time>
      </trkpt>
      <trkpt lat="51.231730827572" lon="4.465751178233">
        <ele>27.2</ele>
        <time>2020-07-28T11:32:47Z</time>
      </trkpt>
      <trkpt lat="51.23202017076" lon="4.465187998372">
        <ele>15.8</ele>
        <time>2020-07-28T11:33:21Z</time>
      </trkpt>
      <trkpt lat="51.232100217905" lon="4.464979289062">
        <ele>15.8</ele>
        <time>2020-07-28T11:33:33Z</time>
      </trkpt>
      <trkpt lat="51.23230850812" lon="4.464346707069">
        <ele>14.4</ele>
        <time>2020-07-28T11:34:08Z</time>
      </trkpt>
      <trkpt lat="51.23231521364" lon="4.464329440355">
        <ele>13.8</ele>
        <time>2020-07-28T11:34:09Z</time>
      </trkpt>
      <trkpt lat="51.232345556118" lon="4.464204214769">
        <ele>15</ele>
        <time>2020-07-28T11:34:16Z</time>
      </trkpt>
      <trkpt lat="51.232338766779" lon="4.463498458789">
        <ele>13.4</ele>
        <time>2020-07-28T11:34:52Z</time>
      </trkpt>
      <trkpt lat="51.232360392081" lon="4.463334592644">
        <ele>13.6</ele>
        <time>2020-07-28T11:35:02Z</time>
      </trkpt>
      <trkpt lat="51.232301634962" lon="4.463077100676">
        <ele>10.4</ele>
        <time>2020-07-28T11:35:16Z</time>
      </trkpt>
      <trkpt lat="51.232258719634" lon="4.462900326405">
        <ele>11.2</ele>
        <time>2020-07-28T11:35:29Z</time>
      </trkpt>
      <trkpt lat="51.232173308073" lon="4.462571755925">
        <ele>15.2</ele>
        <time>2020-07-28T11:35:52Z</time>
      </trkpt>
      <trkpt lat="51.232156292816" lon="4.462078397291">
        <ele>15.8</ele>
        <time>2020-07-28T11:36:15Z</time>
      </trkpt>
      <trkpt lat="51.232110024728" lon="4.46172225036">
        <ele>13.6</ele>
        <time>2020-07-28T11:36:34Z</time>
      </trkpt>
      <trkpt lat="51.231986978436" lon="4.461202991655">
        <ele>8.2</ele>
        <time>2020-07-28T11:37:02Z</time>
      </trkpt>
      <trkpt lat="51.231854879692" lon="4.460507126317">
        <ele>11.8</ele>
        <time>2020-07-28T11:37:36Z</time>
      </trkpt>
      <trkpt lat="51.231843480308" lon="4.460325742001">
        <ele>12</ele>
        <time>2020-07-28T11:37:46Z</time>
      </trkpt>
      <trkpt lat="51.231789249415" lon="4.460005301964">
        <ele>13.4</ele>
        <time>2020-07-28T11:38:03Z</time>
      </trkpt>
      <trkpt lat="51.231670142616" lon="4.45982877915">
        <ele>14.6</ele>
        <time>2020-07-28T11:38:20Z</time>
      </trkpt>
      <trkpt lat="51.231211987962" lon="4.45982207363">
        <ele>14.8</ele>
        <time>2020-07-28T11:38:59Z</time>
      </trkpt>
      <trkpt lat="51.230766909072" lon="4.459897594549">
        <ele>13.2</ele>
        <time>2020-07-28T11:39:35Z</time>
      </trkpt>
      <trkpt lat="51.230432052167" lon="4.459756527172">
        <ele>16</ele>
        <time>2020-07-28T11:40:03Z</time>
      </trkpt>
      <trkpt lat="51.230458538971" lon="4.45954379455">
        <ele>11.8</ele>
        <time>2020-07-28T11:40:13Z</time>
      </trkpt>
      <trkpt lat="51.230314621748" lon="4.458889587255">
        <ele>10.4</ele>
        <time>2020-07-28T11:40:55Z</time>
      </trkpt>
      <trkpt lat="51.230091076475" lon="4.458904842313">
        <ele>12.2</ele>
        <time>2020-07-28T11:41:15Z</time>
      </trkpt>
      <trkpt lat="51.230041623265" lon="4.458907356883">
        <ele>12.6</ele>
        <time>2020-07-28T11:41:19Z</time>
      </trkpt>
      <trkpt lat="51.22996576707" lon="4.458900819001">
        <ele>15.2</ele>
        <time>2020-07-28T11:41:25Z</time>
      </trkpt>
      <trkpt lat="51.229904160105" lon="4.458676184081">
        <ele>10.8</ele>
        <time>2020-07-28T11:41:38Z</time>
      </trkpt>
      <trkpt lat="51.22990122644" lon="4.458524052596">
        <ele>9.8</ele>
        <time>2020-07-28T11:41:46Z</time>
      </trkpt>
      <trkpt lat="51.229883875907" lon="4.458335711303">
        <ele>9.4</ele>
        <time>2020-07-28T11:41:55Z</time>
      </trkpt>
      <trkpt lat="51.229851689411" lon="4.457986102254">
        <ele>9.2</ele>
        <time>2020-07-28T11:42:15Z</time>
      </trkpt>
      <trkpt lat="51.229819251458" lon="4.457957436156">
        <ele>10.4</ele>
        <time>2020-07-28T11:42:22Z</time>
      </trkpt>
      <trkpt lat="51.229731828241" lon="4.458006218814">
        <ele>10.8</ele>
        <time>2020-07-28T11:42:35Z</time>
      </trkpt>
    </trkseg>
  </trk>
</gpx>